sensor_id;sensor_type;location;lat;lon;timestamp;P1;durP1;ratioP1;P2;durP2;ratioP2
10761;SDS011;5433;50.862;4.320;2022-07-06T00:01:18;4.50;;;2.78;;
10761;SDS011;5433;50.862;4.320;2022-07-06T00:03:44;5.50;;;2.50;;
10761;SDS011;5433;50.862;4.320;2022-07-06T00:06:10;4.07;;;2.70;;
10761;SDS011;5433;50.862;4.320;2022-07-06T00:08:36;6.00;;;2.80;;
10761;SDS011;5433;50.862;4.320;2022-07-06T00:11:02;4.68;;;2.88;;
10761;SDS011;5433;50.862;4.320;2022-07-06T00:13:29;6.35;;;2.70;;
10761;SDS011;5433;50.862;4.320;2022-07-06T00:15:55;7.32;;;3.00;;
10761;SDS011;5433;50.862;4.320;2022-07-06T00:18:21;6.47;;;2.92;;
10761;SDS011;5433;50.862;4.320;2022-07-06T00:20:47;5.85;;;2.88;;
10761;SDS011;5433;50.862;4.320;2022-07-06T00:23:13;5.80;;;3.00;;
10761;SDS011;5433;50.862;4.320;2022-07-06T00:25:39;5.40;;;2.90;;
10761;SDS011;5433;50.862;4.320;2022-07-06T00:28:05;6.50;;;2.80;;
10761;SDS011;5433;50.862;4.320;2022-07-06T00:30:31;4.07;;;3.10;;
10761;SDS011;5433;50.862;4.320;2022-07-06T00:32:57;3.90;;;2.70;;
10761;SDS011;5433;50.862;4.320;2022-07-06T00:35:24;5.82;;;3.15;;
10761;SDS011;5433;50.862;4.320;2022-07-06T00:37:50;3.58;;;2.70;;
10761;SDS011;5433;50.862;4.320;2022-07-06T00:40:17;5.22;;;2.88;;
10761;SDS011;5433;50.862;4.320;2022-07-06T00:42:44;4.65;;;2.92;;
10761;SDS011;5433;50.862;4.320;2022-07-06T00:45:10;6.25;;;3.08;;
10761;SDS011;5433;50.862;4.320;2022-07-06T00:47:37;5.35;;;2.72;;
10761;SDS011;5433;50.862;4.320;2022-07-06T00:50:03;5.07;;;2.80;;
10761;SDS011;5433;50.862;4.320;2022-07-06T00:52:42;5.00;;;2.75;;
10761;SDS011;5433;50.862;4.320;2022-07-06T00:55:09;5.05;;;2.78;;
10761;SDS011;5433;50.862;4.320;2022-07-06T00:57:36;4.70;;;2.95;;
10761;SDS011;5433;50.862;4.320;2022-07-06T01:00:05;4.93;;;2.88;;
10761;SDS011;5433;50.862;4.320;2022-07-06T01:02:33;4.85;;;2.80;;
10761;SDS011;5433;50.862;4.320;2022-07-06T01:05:00;4.63;;;3.00;;
10761;SDS011;5433;50.862;4.320;2022-07-06T01:07:27;3.40;;;2.50;;
10761;SDS011;5433;50.862;4.320;2022-07-06T01:09:54;4.70;;;2.80;;
10761;SDS011;5433;50.862;4.320;2022-07-06T01:12:20;6.45;;;2.97;;
10761;SDS011;5433;50.862;4.320;2022-07-06T01:14:46;4.25;;;2.88;;
10761;SDS011;5433;50.862;4.320;2022-07-06T01:17:13;5.13;;;2.65;;
10761;SDS011;5433;50.862;4.320;2022-07-06T01:19:39;4.55;;;2.58;;
10761;SDS011;5433;50.862;4.320;2022-07-06T01:22:05;6.55;;;2.83;;
10761;SDS011;5433;50.862;4.320;2022-07-06T01:24:34;5.45;;;2.85;;
10761;SDS011;5433;50.862;4.320;2022-07-06T01:27:00;5.88;;;3.10;;
10761;SDS011;5433;50.862;4.320;2022-07-06T01:29:27;4.38;;;2.80;;
10761;SDS011;5433;50.862;4.320;2022-07-06T01:31:53;6.32;;;3.35;;
10761;SDS011;5433;50.862;4.320;2022-07-06T01:34:20;3.80;;;3.40;;
10761;SDS011;5433;50.862;4.320;2022-07-06T01:36:46;4.50;;;3.08;;
10761;SDS011;5433;50.862;4.320;2022-07-06T01:39:12;5.90;;;3.22;;
10761;SDS011;5433;50.862;4.320;2022-07-06T01:41:38;4.38;;;3.25;;
10761;SDS011;5433;50.862;4.320;2022-07-06T01:44:05;5.13;;;3.28;;
10761;SDS011;5433;50.862;4.320;2022-07-06T01:46:31;5.90;;;3.20;;
10761;SDS011;5433;50.862;4.320;2022-07-06T01:48:57;5.57;;;3.30;;
10761;SDS011;5433;50.862;4.320;2022-07-06T01:51:23;6.70;;;3.50;;
10761;SDS011;5433;50.862;4.320;2022-07-06T01:53:49;4.28;;;3.20;;
10761;SDS011;5433;50.862;4.320;2022-07-06T01:56:16;4.45;;;3.10;;
10761;SDS011;5433;50.862;4.320;2022-07-06T01:58:44;5.93;;;3.30;;
10761;SDS011;5433;50.862;4.320;2022-07-06T02:01:11;4.45;;;3.70;;
10761;SDS011;5433;50.862;4.320;2022-07-06T02:03:37;6.05;;;3.40;;
10761;SDS011;5433;50.862;4.320;2022-07-06T02:06:04;5.25;;;3.50;;
10761;SDS011;5433;50.862;4.320;2022-07-06T02:08:30;5.53;;;3.38;;
10761;SDS011;5433;50.862;4.320;2022-07-06T02:10:58;5.72;;;3.35;;
10761;SDS011;5433;50.862;4.320;2022-07-06T02:13:25;4.80;;;3.63;;
10761;SDS011;5433;50.862;4.320;2022-07-06T02:15:51;4.50;;;3.40;;
10761;SDS011;5433;50.862;4.320;2022-07-06T02:18:17;6.68;;;3.40;;
10761;SDS011;5433;50.862;4.320;2022-07-06T02:20:43;6.15;;;3.33;;
10761;SDS011;5433;50.862;4.320;2022-07-06T02:23:09;6.57;;;3.80;;
10761;SDS011;5433;50.862;4.320;2022-07-06T02:25:35;8.25;;;4.20;;
10761;SDS011;5433;50.862;4.320;2022-07-06T02:28:01;6.18;;;3.58;;
10761;SDS011;5433;50.862;4.320;2022-07-06T02:30:27;6.50;;;3.53;;
10761;SDS011;5433;50.862;4.320;2022-07-06T02:32:53;6.90;;;3.60;;
10761;SDS011;5433;50.862;4.320;2022-07-06T02:35:19;5.50;;;3.55;;
10761;SDS011;5433;50.862;4.320;2022-07-06T02:37:45;4.72;;;3.50;;
10761;SDS011;5433;50.862;4.320;2022-07-06T02:40:11;6.00;;;3.42;;
10761;SDS011;5433;50.862;4.320;2022-07-06T02:42:38;5.57;;;3.47;;
10761;SDS011;5433;50.862;4.320;2022-07-06T02:45:04;4.57;;;3.60;;
10761;SDS011;5433;50.862;4.320;2022-07-06T02:47:30;5.50;;;3.55;;
10761;SDS011;5433;50.862;4.320;2022-07-06T02:49:56;4.13;;;3.50;;
10761;SDS011;5433;50.862;4.320;2022-07-06T02:52:22;5.72;;;3.60;;
10761;SDS011;5433;50.862;4.320;2022-07-06T02:54:48;4.53;;;3.30;;
10761;SDS011;5433;50.862;4.320;2022-07-06T02:57:15;5.70;;;3.58;;
10761;SDS011;5433;50.862;4.320;2022-07-06T02:59:41;5.75;;;3.47;;
10761;SDS011;5433;50.862;4.320;2022-07-06T03:02:07;6.13;;;3.78;;
10761;SDS011;5433;50.862;4.320;2022-07-06T03:04:33;5.88;;;3.80;;
10761;SDS011;5433;50.862;4.320;2022-07-06T03:06:59;7.20;;;3.90;;
10761;SDS011;5433;50.862;4.320;2022-07-06T03:09:25;5.22;;;3.95;;
10761;SDS011;5433;50.862;4.320;2022-07-06T03:11:52;5.25;;;3.80;;
10761;SDS011;5433;50.862;4.320;2022-07-06T03:14:18;5.18;;;3.50;;
10761;SDS011;5433;50.862;4.320;2022-07-06T03:16:44;4.70;;;4.07;;
10761;SDS011;5433;50.862;4.320;2022-07-06T03:19:10;7.60;;;4.07;;
10761;SDS011;5433;50.862;4.320;2022-07-06T03:21:36;6.32;;;4.05;;
10761;SDS011;5433;50.862;4.320;2022-07-06T03:24:02;4.75;;;3.75;;
10761;SDS011;5433;50.862;4.320;2022-07-06T03:26:28;5.55;;;3.95;;
10761;SDS011;5433;50.862;4.320;2022-07-06T03:28:54;5.25;;;3.90;;
10761;SDS011;5433;50.862;4.320;2022-07-06T03:31:20;4.95;;;4.18;;
10761;SDS011;5433;50.862;4.320;2022-07-06T03:33:47;6.55;;;3.70;;
10761;SDS011;5433;50.862;4.320;2022-07-06T03:36:13;5.30;;;4.00;;
10761;SDS011;5433;50.862;4.320;2022-07-06T03:38:39;7.53;;;4.20;;
10761;SDS011;5433;50.862;4.320;2022-07-06T03:41:05;5.72;;;3.95;;
10761;SDS011;5433;50.862;4.320;2022-07-06T03:43:31;6.15;;;4.10;;
10761;SDS011;5433;50.862;4.320;2022-07-06T03:45:57;6.28;;;4.20;;
10761;SDS011;5433;50.862;4.320;2022-07-06T03:48:23;5.85;;;4.10;;
10761;SDS011;5433;50.862;4.320;2022-07-06T03:50:49;4.95;;;4.00;;
10761;SDS011;5433;50.862;4.320;2022-07-06T03:53:15;6.03;;;4.10;;
10761;SDS011;5433;50.862;4.320;2022-07-06T03:55:41;7.30;;;4.10;;
10761;SDS011;5433;50.862;4.320;2022-07-06T03:58:07;6.53;;;4.13;;
10761;SDS011;5433;50.862;4.320;2022-07-06T04:00:33;6.07;;;4.10;;
10761;SDS011;5433;50.862;4.320;2022-07-06T04:03:00;6.25;;;3.60;;
10761;SDS011;5433;50.862;4.320;2022-07-06T04:05:26;5.65;;;4.20;;
10761;SDS011;5433;50.862;4.320;2022-07-06T04:07:53;6.05;;;4.18;;
10761;SDS011;5433;50.862;4.320;2022-07-06T04:10:19;6.38;;;4.10;;
10761;SDS011;5433;50.862;4.320;2022-07-06T04:12:46;8.40;;;4.30;;
10761;SDS011;5433;50.862;4.320;2022-07-06T04:15:12;7.00;;;4.25;;
10761;SDS011;5433;50.862;4.320;2022-07-06T04:17:38;5.13;;;4.10;;
10761;SDS011;5433;50.862;4.320;2022-07-06T04:20:16;6.25;;;4.20;;
10761;SDS011;5433;50.862;4.320;2022-07-06T04:22:43;6.72;;;3.97;;
10761;SDS011;5433;50.862;4.320;2022-07-06T04:25:09;5.45;;;3.90;;
10761;SDS011;5433;50.862;4.320;2022-07-06T04:27:35;6.35;;;4.07;;
10761;SDS011;5433;50.862;4.320;2022-07-06T04:30:02;6.07;;;4.38;;
10761;SDS011;5433;50.862;4.320;2022-07-06T04:32:28;5.72;;;4.15;;
10761;SDS011;5433;50.862;4.320;2022-07-06T04:34:54;6.90;;;4.63;;
10761;SDS011;5433;50.862;4.320;2022-07-06T04:37:20;5.10;;;4.15;;
10761;SDS011;5433;50.862;4.320;2022-07-06T04:39:46;6.10;;;4.57;;
10761;SDS011;5433;50.862;4.320;2022-07-06T04:42:12;7.13;;;4.53;;
10761;SDS011;5433;50.862;4.320;2022-07-06T04:44:38;8.55;;;4.60;;
10761;SDS011;5433;50.862;4.320;2022-07-06T04:47:04;7.65;;;4.75;;
10761;SDS011;5433;50.862;4.320;2022-07-06T04:49:30;6.35;;;4.22;;
10761;SDS011;5433;50.862;4.320;2022-07-06T04:51:56;7.60;;;4.45;;
10761;SDS011;5433;50.862;4.320;2022-07-06T04:54:22;6.68;;;4.47;;
10761;SDS011;5433;50.862;4.320;2022-07-06T04:56:48;8.07;;;4.53;;
10761;SDS011;5433;50.862;4.320;2022-07-06T04:59:14;7.72;;;4.72;;
10761;SDS011;5433;50.862;4.320;2022-07-06T05:01:51;6.15;;;4.50;;
10761;SDS011;5433;50.862;4.320;2022-07-06T05:04:17;6.68;;;4.22;;
10761;SDS011;5433;50.862;4.320;2022-07-06T05:06:44;4.55;;;4.13;;
10761;SDS011;5433;50.862;4.320;2022-07-06T05:09:11;5.20;;;4.20;;
10761;SDS011;5433;50.862;4.320;2022-07-06T05:11:37;5.38;;;4.60;;
10761;SDS011;5433;50.862;4.320;2022-07-06T05:14:03;8.60;;;4.90;;
10761;SDS011;5433;50.862;4.320;2022-07-06T05:16:29;8.00;;;4.65;;
10761;SDS011;5433;50.862;4.320;2022-07-06T05:18:55;6.78;;;4.80;;
10761;SDS011;5433;50.862;4.320;2022-07-06T05:21:21;5.78;;;5.05;;
10761;SDS011;5433;50.862;4.320;2022-07-06T05:23:47;10.55;;;5.03;;
10761;SDS011;5433;50.862;4.320;2022-07-06T05:26:13;8.55;;;5.90;;
10761;SDS011;5433;50.862;4.320;2022-07-06T05:28:39;8.13;;;5.65;;
10761;SDS011;5433;50.862;4.320;2022-07-06T05:31:05;6.65;;;5.57;;
10761;SDS011;5433;50.862;4.320;2022-07-06T05:33:31;8.70;;;5.60;;
10761;SDS011;5433;50.862;4.320;2022-07-06T05:35:57;9.45;;;5.82;;
10761;SDS011;5433;50.862;4.320;2022-07-06T05:38:23;9.82;;;5.78;;
10761;SDS011;5433;50.862;4.320;2022-07-06T05:40:50;7.57;;;5.47;;
10761;SDS011;5433;50.862;4.320;2022-07-06T05:43:19;8.43;;;5.45;;
10761;SDS011;5433;50.862;4.320;2022-07-06T05:45:45;10.82;;;5.50;;
10761;SDS011;5433;50.862;4.320;2022-07-06T05:48:11;8.80;;;5.70;;
10761;SDS011;5433;50.862;4.320;2022-07-06T05:50:56;7.05;;;5.60;;
10761;SDS011;5433;50.862;4.320;2022-07-06T05:53:22;8.45;;;5.60;;
10761;SDS011;5433;50.862;4.320;2022-07-06T05:55:48;8.90;;;5.75;;
10761;SDS011;5433;50.862;4.320;2022-07-06T05:58:14;10.85;;;6.22;;
10761;SDS011;5433;50.862;4.320;2022-07-06T06:00:40;14.98;;;6.43;;
10761;SDS011;5433;50.862;4.320;2022-07-06T06:03:06;9.43;;;5.90;;
10761;SDS011;5433;50.862;4.320;2022-07-06T06:05:32;8.25;;;5.95;;
10761;SDS011;5433;50.862;4.320;2022-07-06T06:07:58;8.82;;;6.10;;
10761;SDS011;5433;50.862;4.320;2022-07-06T06:10:24;9.80;;;6.28;;
10761;SDS011;5433;50.862;4.320;2022-07-06T06:12:51;7.93;;;5.45;;
10761;SDS011;5433;50.862;4.320;2022-07-06T06:15:17;8.52;;;5.82;;
10761;SDS011;5433;50.862;4.320;2022-07-06T06:17:43;9.02;;;5.75;;
10761;SDS011;5433;50.862;4.320;2022-07-06T06:20:11;8.93;;;5.93;;
10761;SDS011;5433;50.862;4.320;2022-07-06T06:25:42;9.73;;;5.43;;
10761;SDS011;5433;50.862;4.320;2022-07-06T06:28:08;7.63;;;5.40;;
10761;SDS011;5433;50.862;4.320;2022-07-06T06:30:35;9.80;;;5.70;;
10761;SDS011;5433;50.862;4.320;2022-07-06T06:36:05;9.60;;;5.57;;
10761;SDS011;5433;50.862;4.320;2022-07-06T06:38:31;8.20;;;4.88;;
10761;SDS011;5433;50.862;4.320;2022-07-06T06:40:58;7.60;;;5.18;;
10761;SDS011;5433;50.862;4.320;2022-07-06T06:43:24;8.52;;;5.60;;
10761;SDS011;5433;50.862;4.320;2022-07-06T06:45:50;8.63;;;5.60;;
10761;SDS011;5433;50.862;4.320;2022-07-06T06:48:16;7.82;;;5.40;;
10761;SDS011;5433;50.862;4.320;2022-07-06T06:50:44;7.47;;;5.05;;
10761;SDS011;5433;50.862;4.320;2022-07-06T06:53:10;7.97;;;4.60;;
10761;SDS011;5433;50.862;4.320;2022-07-06T06:55:36;8.15;;;4.47;;
10761;SDS011;5433;50.862;4.320;2022-07-06T06:58:02;6.20;;;4.07;;
10761;SDS011;5433;50.862;4.320;2022-07-06T07:00:28;6.65;;;4.07;;
10761;SDS011;5433;50.862;4.320;2022-07-06T07:02:55;8.05;;;3.70;;
10761;SDS011;5433;50.862;4.320;2022-07-06T07:05:21;5.90;;;3.97;;
10761;SDS011;5433;50.862;4.320;2022-07-06T07:07:47;7.45;;;4.20;;
10761;SDS011;5433;50.862;4.320;2022-07-06T07:10:13;7.95;;;3.72;;
10761;SDS011;5433;50.862;4.320;2022-07-06T07:12:45;7.55;;;3.92;;
10761;SDS011;5433;50.862;4.320;2022-07-06T07:15:12;5.47;;;3.60;;
10761;SDS011;5433;50.862;4.320;2022-07-06T07:17:39;6.20;;;3.30;;
10761;SDS011;5433;50.862;4.320;2022-07-06T07:20:05;4.90;;;3.60;;
10761;SDS011;5433;50.862;4.320;2022-07-06T07:22:32;5.20;;;3.53;;
10761;SDS011;5433;50.862;4.320;2022-07-06T07:24:58;5.57;;;2.95;;
10761;SDS011;5433;50.862;4.320;2022-07-06T07:27:24;5.10;;;2.85;;
10761;SDS011;5433;50.862;4.320;2022-07-06T07:29:50;5.53;;;2.50;;
10761;SDS011;5433;50.862;4.320;2022-07-06T07:32:16;6.40;;;2.60;;
10761;SDS011;5433;50.862;4.320;2022-07-06T07:34:42;4.68;;;1.90;;
10761;SDS011;5433;50.862;4.320;2022-07-06T07:37:08;4.03;;;1.77;;
10761;SDS011;5433;50.862;4.320;2022-07-06T07:39:35;4.03;;;1.80;;
10761;SDS011;5433;50.862;4.320;2022-07-06T07:42:01;4.38;;;1.60;;
10761;SDS011;5433;50.862;4.320;2022-07-06T07:47:30;3.22;;;1.90;;
10761;SDS011;5433;50.862;4.320;2022-07-06T07:49:56;5.32;;;2.08;;
10761;SDS011;5433;50.862;4.320;2022-07-06T07:52:22;5.13;;;2.40;;
10761;SDS011;5433;50.862;4.320;2022-07-06T07:54:49;4.18;;;2.10;;
10761;SDS011;5433;50.862;4.320;2022-07-06T07:57:15;5.40;;;2.47;;
10761;SDS011;5433;50.862;4.320;2022-07-06T07:59:41;4.00;;;2.40;;
10761;SDS011;5433;50.862;4.320;2022-07-06T08:02:07;5.43;;;2.65;;
10761;SDS011;5433;50.862;4.320;2022-07-06T08:04:33;5.72;;;2.47;;
10761;SDS011;5433;50.862;4.320;2022-07-06T08:06:59;6.45;;;2.20;;
10761;SDS011;5433;50.862;4.320;2022-07-06T08:09:25;4.57;;;2.10;;
10761;SDS011;5433;50.862;4.320;2022-07-06T08:11:51;4.05;;;2.25;;
10761;SDS011;5433;50.862;4.320;2022-07-06T08:14:18;4.60;;;2.40;;
10761;SDS011;5433;50.862;4.320;2022-07-06T08:16:44;4.82;;;2.03;;
10761;SDS011;5433;50.862;4.320;2022-07-06T08:19:10;6.32;;;2.00;;
10761;SDS011;5433;50.862;4.320;2022-07-06T08:21:40;3.88;;;1.80;;
10761;SDS011;5433;50.862;4.320;2022-07-06T08:24:06;3.50;;;2.13;;
10761;SDS011;5433;50.862;4.320;2022-07-06T08:26:32;4.72;;;2.60;;
10761;SDS011;5433;50.862;4.320;2022-07-06T08:28:58;4.65;;;2.50;;
10761;SDS011;5433;50.862;4.320;2022-07-06T08:31:24;5.25;;;2.72;;
10761;SDS011;5433;50.862;4.320;2022-07-06T08:33:52;4.53;;;2.20;;
10761;SDS011;5433;50.862;4.320;2022-07-06T08:36:18;3.38;;;2.00;;
10761;SDS011;5433;50.862;4.320;2022-07-06T08:38:44;4.70;;;2.35;;
10761;SDS011;5433;50.862;4.320;2022-07-06T08:41:10;4.80;;;2.13;;
10761;SDS011;5433;50.862;4.320;2022-07-06T08:43:37;4.95;;;2.22;;
10761;SDS011;5433;50.862;4.320;2022-07-06T08:46:03;3.85;;;2.20;;
10761;SDS011;5433;50.862;4.320;2022-07-06T08:48:30;5.75;;;2.42;;
10761;SDS011;5433;50.862;4.320;2022-07-06T08:50:59;5.40;;;2.60;;
10761;SDS011;5433;50.862;4.320;2022-07-06T08:53:25;6.20;;;2.92;;
10761;SDS011;5433;50.862;4.320;2022-07-06T08:55:51;4.80;;;3.08;;
10761;SDS011;5433;50.862;4.320;2022-07-06T08:58:17;5.38;;;3.20;;
10761;SDS011;5433;50.862;4.320;2022-07-06T09:00:43;8.25;;;3.65;;
10761;SDS011;5433;50.862;4.320;2022-07-06T09:03:11;3.70;;;3.17;;
10761;SDS011;5433;50.862;4.320;2022-07-06T09:05:37;3.83;;;3.15;;
10761;SDS011;5433;50.862;4.320;2022-07-06T09:08:05;5.07;;;2.65;;
10761;SDS011;5433;50.862;4.320;2022-07-06T09:10:31;5.28;;;3.40;;
10761;SDS011;5433;50.862;4.320;2022-07-06T09:13:07;5.07;;;3.10;;
10761;SDS011;5433;50.862;4.320;2022-07-06T09:15:34;5.53;;;2.97;;
10761;SDS011;5433;50.862;4.320;2022-07-06T09:18:00;4.57;;;2.88;;
10761;SDS011;5433;50.862;4.320;2022-07-06T09:20:26;5.60;;;2.90;;
10761;SDS011;5433;50.862;4.320;2022-07-06T09:22:59;4.15;;;2.92;;
10761;SDS011;5433;50.862;4.320;2022-07-06T09:25:26;5.97;;;3.40;;
10761;SDS011;5433;50.862;4.320;2022-07-06T09:27:53;5.30;;;3.28;;
10761;SDS011;5433;50.862;4.320;2022-07-06T09:30:19;5.35;;;2.85;;
10761;SDS011;5433;50.862;4.320;2022-07-06T09:32:50;5.70;;;2.80;;
10761;SDS011;5433;50.862;4.320;2022-07-06T09:37:46;4.75;;;2.85;;
10761;SDS011;5433;50.862;4.320;2022-07-06T09:40:17;5.13;;;2.63;;
10761;SDS011;5433;50.862;4.320;2022-07-06T09:42:44;3.95;;;2.50;;
10761;SDS011;5433;50.862;4.320;2022-07-06T09:45:10;5.78;;;2.42;;
10761;SDS011;5433;50.862;4.320;2022-07-06T09:47:36;4.25;;;2.50;;
10761;SDS011;5433;50.862;4.320;2022-07-06T09:50:04;6.38;;;2.83;;
10761;SDS011;5433;50.862;4.320;2022-07-06T09:52:33;5.75;;;2.80;;
10761;SDS011;5433;50.862;4.320;2022-07-06T09:54:59;6.20;;;3.00;;
10761;SDS011;5433;50.862;4.320;2022-07-06T09:57:25;4.45;;;2.60;;
10761;SDS011;5433;50.862;4.320;2022-07-06T09:59:51;5.75;;;2.88;;
10761;SDS011;5433;50.862;4.320;2022-07-06T10:02:17;5.30;;;2.45;;
10761;SDS011;5433;50.862;4.320;2022-07-06T10:04:47;4.75;;;2.42;;
10761;SDS011;5433;50.862;4.320;2022-07-06T10:07:14;5.25;;;2.50;;
10761;SDS011;5433;50.862;4.320;2022-07-06T10:09:40;7.32;;;2.97;;
10761;SDS011;5433;50.862;4.320;2022-07-06T10:12:07;3.88;;;2.25;;
10761;SDS011;5433;50.862;4.320;2022-07-06T10:14:36;4.18;;;2.40;;
10761;SDS011;5433;50.862;4.320;2022-07-06T10:17:03;5.38;;;2.30;;
10761;SDS011;5433;50.862;4.320;2022-07-06T10:19:30;4.28;;;2.22;;
10761;SDS011;5433;50.862;4.320;2022-07-06T10:22:00;7.50;;;2.35;;
10761;SDS011;5433;50.862;4.320;2022-07-06T10:24:28;4.90;;;2.70;;
10761;SDS011;5433;50.862;4.320;2022-07-06T10:26:55;4.47;;;2.55;;
10761;SDS011;5433;50.862;4.320;2022-07-06T10:29:21;4.80;;;2.92;;
10761;SDS011;5433;50.862;4.320;2022-07-06T10:31:48;5.45;;;2.55;;
10761;SDS011;5433;50.862;4.320;2022-07-06T10:34:17;3.78;;;2.22;;
10761;SDS011;5433;50.862;4.320;2022-07-06T10:36:44;5.68;;;2.75;;
10761;SDS011;5433;50.862;4.320;2022-07-06T10:39:10;6.00;;;3.00;;
10761;SDS011;5433;50.862;4.320;2022-07-06T10:41:55;4.18;;;2.65;;
10761;SDS011;5433;50.862;4.320;2022-07-06T10:44:22;5.72;;;2.70;;
10761;SDS011;5433;50.862;4.320;2022-07-06T10:46:58;3.85;;;2.20;;
10761;SDS011;5433;50.862;4.320;2022-07-06T10:49:25;2.65;;;2.10;;
10761;SDS011;5433;50.862;4.320;2022-07-06T10:51:53;3.03;;;2.40;;
10761;SDS011;5433;50.862;4.320;2022-07-06T10:54:20;5.70;;;2.45;;
10761;SDS011;5433;50.862;4.320;2022-07-06T10:56:47;4.45;;;2.75;;
10761;SDS011;5433;50.862;4.320;2022-07-06T10:59:14;5.03;;;2.72;;
10761;SDS011;5433;50.862;4.320;2022-07-06T11:01:40;4.57;;;2.80;;
10761;SDS011;5433;50.862;4.320;2022-07-06T11:04:08;4.25;;;2.58;;
10761;SDS011;5433;50.862;4.320;2022-07-06T11:06:38;4.88;;;2.22;;
10761;SDS011;5433;50.862;4.320;2022-07-06T11:09:05;4.43;;;2.28;;
10761;SDS011;5433;50.862;4.320;2022-07-06T11:14:05;5.20;;;2.40;;
10761;SDS011;5433;50.862;4.320;2022-07-06T11:16:58;2.38;;;2.05;;
10761;SDS011;5433;50.862;4.320;2022-07-06T11:19:18;5.63;;;2.75;;
10761;SDS011;5433;50.862;4.320;2022-07-06T11:21:44;4.15;;;2.40;;
10761;SDS011;5433;50.862;4.320;2022-07-06T11:24:15;4.03;;;2.22;;
10761;SDS011;5433;50.862;4.320;2022-07-06T11:26:43;3.78;;;1.83;;
10761;SDS011;5433;50.862;4.320;2022-07-06T11:29:10;4.60;;;2.33;;
10761;SDS011;5433;50.862;4.320;2022-07-06T11:31:37;4.72;;;2.60;;
10761;SDS011;5433;50.862;4.320;2022-07-06T11:34:04;4.63;;;2.40;;
10761;SDS011;5433;50.862;4.320;2022-07-06T11:36:31;4.85;;;2.40;;
10761;SDS011;5433;50.862;4.320;2022-07-06T11:38:57;4.03;;;2.13;;
10761;SDS011;5433;50.862;4.320;2022-07-06T11:41:23;5.70;;;2.25;;
10761;SDS011;5433;50.862;4.320;2022-07-06T11:43:49;5.72;;;2.10;;
10761;SDS011;5433;50.862;4.320;2022-07-06T11:48:51;4.20;;;2.28;;
10761;SDS011;5433;50.862;4.320;2022-07-06T11:51:17;5.32;;;2.03;;
10761;SDS011;5433;50.862;4.320;2022-07-06T11:53:47;4.05;;;1.67;;
10761;SDS011;5433;50.862;4.320;2022-07-06T11:56:17;3.38;;;1.98;;
10761;SDS011;5433;50.862;4.320;2022-07-06T11:58:50;6.22;;;1.92;;
10761;SDS011;5433;50.862;4.320;2022-07-06T12:01:16;2.33;;;1.98;;
10761;SDS011;5433;50.862;4.320;2022-07-06T12:03:43;5.30;;;1.70;;
10761;SDS011;5433;50.862;4.320;2022-07-06T12:06:19;5.20;;;2.65;;
10761;SDS011;5433;50.862;4.320;2022-07-06T12:11:16;4.38;;;1.88;;
10761;SDS011;5433;50.862;4.320;2022-07-06T12:13:42;6.00;;;1.90;;
10761;SDS011;5433;50.862;4.320;2022-07-06T12:16:09;2.55;;;1.73;;
10761;SDS011;5433;50.862;4.320;2022-07-06T12:18:36;4.63;;;1.85;;
10761;SDS011;5433;50.862;4.320;2022-07-06T12:21:02;3.30;;;2.05;;
10761;SDS011;5433;50.862;4.320;2022-07-06T12:23:37;2.63;;;1.70;;
10761;SDS011;5433;50.862;4.320;2022-07-06T12:26:03;3.15;;;1.98;;
10761;SDS011;5433;50.862;4.320;2022-07-06T12:28:29;4.55;;;2.10;;
10761;SDS011;5433;50.862;4.320;2022-07-06T12:30:55;4.25;;;2.00;;
10761;SDS011;5433;50.862;4.320;2022-07-06T12:33:21;6.97;;;2.83;;
10761;SDS011;5433;50.862;4.320;2022-07-06T12:35:48;5.97;;;2.10;;
10761;SDS011;5433;50.862;4.320;2022-07-06T12:38:35;4.85;;;2.10;;
10761;SDS011;5433;50.862;4.320;2022-07-06T12:41:00;3.78;;;2.20;;
10761;SDS011;5433;50.862;4.320;2022-07-06T12:43:40;4.88;;;1.80;;
10761;SDS011;5433;50.862;4.320;2022-07-06T12:46:23;3.92;;;1.98;;
10761;SDS011;5433;50.862;4.320;2022-07-06T12:48:55;5.25;;;2.05;;
10761;SDS011;5433;50.862;4.320;2022-07-06T12:51:21;2.80;;;1.90;;
10761;SDS011;5433;50.862;4.320;2022-07-06T12:53:47;4.15;;;2.00;;
10761;SDS011;5433;50.862;4.320;2022-07-06T12:56:13;3.92;;;1.92;;
10761;SDS011;5433;50.862;4.320;2022-07-06T12:58:54;5.18;;;2.40;;
10761;SDS011;5433;50.862;4.320;2022-07-06T13:01:24;5.13;;;1.85;;
10761;SDS011;5433;50.862;4.320;2022-07-06T13:03:54;3.70;;;2.28;;
10761;SDS011;5433;50.862;4.320;2022-07-06T13:06:33;2.65;;;2.10;;
10761;SDS011;5433;50.862;4.320;2022-07-06T13:09:02;3.95;;;2.10;;
10761;SDS011;5433;50.862;4.320;2022-07-06T13:11:28;4.53;;;2.28;;
10761;SDS011;5433;50.862;4.320;2022-07-06T13:13:54;4.65;;;2.00;;
10761;SDS011;5433;50.862;4.320;2022-07-06T13:16:20;5.10;;;2.00;;
10761;SDS011;5433;50.862;4.320;2022-07-06T13:18:49;5.80;;;2.20;;
10761;SDS011;5433;50.862;4.320;2022-07-06T13:21:15;7.15;;;2.38;;
10761;SDS011;5433;50.862;4.320;2022-07-06T13:23:41;3.95;;;2.55;;
10761;SDS011;5433;50.862;4.320;2022-07-06T13:26:07;4.88;;;2.35;;
10761;SDS011;5433;50.862;4.320;2022-07-06T13:28:33;4.78;;;2.30;;
10761;SDS011;5433;50.862;4.320;2022-07-06T13:30:59;4.32;;;2.42;;
10761;SDS011;5433;50.862;4.320;2022-07-06T13:33:25;4.85;;;2.25;;
10761;SDS011;5433;50.862;4.320;2022-07-06T13:35:51;3.28;;;1.90;;
10761;SDS011;5433;50.862;4.320;2022-07-06T13:38:18;3.45;;;2.40;;
10761;SDS011;5433;50.862;4.320;2022-07-06T13:40:44;3.33;;;2.00;;
10761;SDS011;5433;50.862;4.320;2022-07-06T13:43:10;5.57;;;2.33;;
10761;SDS011;5433;50.862;4.320;2022-07-06T13:45:36;3.95;;;2.00;;
10761;SDS011;5433;50.862;4.320;2022-07-06T13:48:02;5.10;;;2.08;;
10761;SDS011;5433;50.862;4.320;2022-07-06T13:50:28;4.30;;;2.13;;
10761;SDS011;5433;50.862;4.320;2022-07-06T13:52:57;4.13;;;2.25;;
10761;SDS011;5433;50.862;4.320;2022-07-06T13:55:23;3.25;;;1.90;;
10761;SDS011;5433;50.862;4.320;2022-07-06T13:57:49;4.65;;;1.95;;
10761;SDS011;5433;50.862;4.320;2022-07-06T14:00:15;5.68;;;2.10;;
10761;SDS011;5433;50.862;4.320;2022-07-06T14:02:43;5.05;;;1.98;;
10761;SDS011;5433;50.862;4.320;2022-07-06T14:05:09;2.78;;;1.67;;
10761;SDS011;5433;50.862;4.320;2022-07-06T14:07:35;3.25;;;2.80;;
10761;SDS011;5433;50.862;4.320;2022-07-06T14:10:02;2.47;;;1.75;;
10761;SDS011;5433;50.862;4.320;2022-07-06T14:12:28;3.83;;;1.83;;
10761;SDS011;5433;50.862;4.320;2022-07-06T14:14:54;3.60;;;1.80;;
10761;SDS011;5433;50.862;4.320;2022-07-06T14:17:20;4.63;;;2.00;;
10761;SDS011;5433;50.862;4.320;2022-07-06T14:19:47;3.47;;;1.90;;
10761;SDS011;5433;50.862;4.320;2022-07-06T14:22:13;2.83;;;1.60;;
10761;SDS011;5433;50.862;4.320;2022-07-06T14:24:39;4.15;;;1.90;;
10761;SDS011;5433;50.862;4.320;2022-07-06T14:27:05;3.50;;;2.00;;
10761;SDS011;5433;50.862;4.320;2022-07-06T14:29:32;4.65;;;1.80;;
10761;SDS011;5433;50.862;4.320;2022-07-06T14:31:58;4.10;;;1.67;;
10761;SDS011;5433;50.862;4.320;2022-07-06T14:34:25;2.92;;;2.08;;
10761;SDS011;5433;50.862;4.320;2022-07-06T14:40:01;4.93;;;1.80;;
10761;SDS011;5433;50.862;4.320;2022-07-06T14:46:00;3.08;;;1.80;;
10761;SDS011;5433;50.862;4.320;2022-07-06T14:48:26;5.45;;;2.05;;
10761;SDS011;5433;50.862;4.320;2022-07-06T14:50:52;3.20;;;2.00;;
10761;SDS011;5433;50.862;4.320;2022-07-06T14:53:18;3.75;;;1.90;;
10761;SDS011;5433;50.862;4.320;2022-07-06T14:55:45;4.05;;;2.00;;
10761;SDS011;5433;50.862;4.320;2022-07-06T14:58:11;2.58;;;1.73;;
10761;SDS011;5433;50.862;4.320;2022-07-06T15:00:37;3.78;;;1.80;;
10761;SDS011;5433;50.862;4.320;2022-07-06T15:03:03;2.95;;;1.60;;
10761;SDS011;5433;50.862;4.320;2022-07-06T15:05:30;2.20;;;1.70;;
10761;SDS011;5433;50.862;4.320;2022-07-06T15:07:56;3.78;;;1.70;;
10761;SDS011;5433;50.862;4.320;2022-07-06T15:10:22;4.05;;;1.90;;
10761;SDS011;5433;50.862;4.320;2022-07-06T15:12:48;4.68;;;2.20;;
10761;SDS011;5433;50.862;4.320;2022-07-06T15:15:14;4.18;;;2.10;;
10761;SDS011;5433;50.862;4.320;2022-07-06T15:17:40;6.28;;;2.00;;
10761;SDS011;5433;50.862;4.320;2022-07-06T15:20:06;3.92;;;1.80;;
10761;SDS011;5433;50.862;4.320;2022-07-06T15:22:32;3.10;;;1.65;;
10761;SDS011;5433;50.862;4.320;2022-07-06T15:25:00;2.20;;;1.55;;